sensor_id;sensor_type;location;lat;lon;timestamp;temperature;humidity
15930;DHT22;8064;51.142;4.780;2023-07-20T00:01:05;17.50;99.90
15930;DHT22;8064;51.142;4.780;2023-07-20T00:03:31;17.60;99.90
15930;DHT22;8064;51.142;4.780;2023-07-20T00:05:57;17.50;99.90
15930;DHT22;8064;51.142;4.780;2023-07-20T00:08:23;17.50;99.90
15930;DHT22;8064;51.142;4.780;2023-07-20T00:10:49;17.50;99.90
15930;DHT22;8064;51.142;4.780;2023-07-20T00:13:15;17.50;99.90
15930;DHT22;8064;51.142;4.780;2023-07-20T00:15:41;17.50;99.90
15930;DHT22;8064;51.142;4.780;2023-07-20T00:18:07;17.50;99.90
15930;DHT22;8064;51.142;4.780;2023-07-20T00:20:33;17.50;99.90
15930;DHT22;8064;51.142;4.780;2023-07-20T00:22:59;17.50;99.90
15930;DHT22;8064;51.142;4.780;2023-07-20T00:25:25;17.50;99.90
15930;DHT22;8064;51.142;4.780;2023-07-20T00:27:51;17.50;99.90
15930;DHT22;8064;51.142;4.780;2023-07-20T00:30:17;17.50;99.90
15930;DHT22;8064;51.142;4.780;2023-07-20T00:32:44;17.50;99.90
15930;DHT22;8064;51.142;4.780;2023-07-20T00:35:10;17.50;99.90
15930;DHT22;8064;51.142;4.780;2023-07-20T00:37:37;17.50;99.90
15930;DHT22;8064;51.142;4.780;2023-07-20T00:40:03;17.50;99.90
15930;DHT22;8064;51.142;4.780;2023-07-20T00:42:31;17.50;99.90
15930;DHT22;8064;51.142;4.780;2023-07-20T00:44:57;17.50;99.90
15930;DHT22;8064;51.142;4.780;2023-07-20T00:47:23;17.50;99.90
15930;DHT22;8064;51.142;4.780;2023-07-20T00:49:50;17.50;99.90
15930;DHT22;8064;51.142;4.780;2023-07-20T00:52:16;17.50;99.90
15930;DHT22;8064;51.142;4.780;2023-07-20T00:54:44;17.50;99.90
15930;DHT22;8064;51.142;4.780;2023-07-20T00:57:10;17.60;99.90
15930;DHT22;8064;51.142;4.780;2023-07-20T00:59:38;17.50;99.90
15930;DHT22;8064;51.142;4.780;2023-07-20T01:02:04;17.50;99.90
15930;DHT22;8064;51.142;4.780;2023-07-20T01:04:30;17.50;99.90
15930;DHT22;8064;51.142;4.780;2023-07-20T01:07:14;17.50;99.90
15930;DHT22;8064;51.142;4.780;2023-07-20T01:12:35;17.50;99.90
15930;DHT22;8064;51.142;4.780;2023-07-20T01:15:06;17.50;99.90
15930;DHT22;8064;51.142;4.780;2023-07-20T01:17:34;17.50;99.90
15930;DHT22;8064;51.142;4.780;2023-07-20T01:19:59;17.50;99.90
15930;DHT22;8064;51.142;4.780;2023-07-20T01:31:34;17.50;99.90
15930;DHT22;8064;51.142;4.780;2023-07-20T01:34:02;17.50;99.90
15930;DHT22;8064;51.142;4.780;2023-07-20T01:36:33;17.50;99.90
15930;DHT22;8064;51.142;4.780;2023-07-20T01:39:00;17.50;99.90
15930;DHT22;8064;51.142;4.780;2023-07-20T01:41:26;17.50;99.90
15930;DHT22;8064;51.142;4.780;2023-07-20T01:43:51;17.50;99.90
15930;DHT22;8064;51.142;4.780;2023-07-20T01:46:17;17.50;99.90
15930;DHT22;8064;51.142;4.780;2023-07-20T01:48:43;17.40;99.90
15930;DHT22;8064;51.142;4.780;2023-07-20T01:51:09;17.40;99.90
15930;DHT22;8064;51.142;4.780;2023-07-20T01:53:35;17.30;99.90
15930;DHT22;8064;51.142;4.780;2023-07-20T01:56:00;17.30;99.90
15930;DHT22;8064;51.142;4.780;2023-07-20T01:58:26;17.30;99.90
15930;DHT22;8064;51.142;4.780;2023-07-20T02:00:52;17.30;99.90
15930;DHT22;8064;51.142;4.780;2023-07-20T02:03:17;17.30;99.90
15930;DHT22;8064;51.142;4.780;2023-07-20T02:05:43;17.20;99.90
15930;DHT22;8064;51.142;4.780;2023-07-20T02:08:09;17.20;99.90
15930;DHT22;8064;51.142;4.780;2023-07-20T02:10:35;17.20;99.90
15930;DHT22;8064;51.142;4.780;2023-07-20T02:13:01;17.20;99.90
15930;DHT22;8064;51.142;4.780;2023-07-20T02:15:27;17.10;99.90
15930;DHT22;8064;51.142;4.780;2023-07-20T02:17:54;17.10;99.90
15930;DHT22;8064;51.142;4.780;2023-07-20T02:20:19;17.10;99.90
15930;DHT22;8064;51.142;4.780;2023-07-20T02:22:46;17.00;99.90
15930;DHT22;8064;51.142;4.780;2023-07-20T02:25:12;16.90;99.90
15930;DHT22;8064;51.142;4.780;2023-07-20T02:27:38;16.90;99.90
15930;DHT22;8064;51.142;4.780;2023-07-20T02:30:05;16.90;99.90
15930;DHT22;8064;51.142;4.780;2023-07-20T02:32:32;16.80;99.90
15930;DHT22;8064;51.142;4.780;2023-07-20T02:34:58;16.70;99.90
15930;DHT22;8064;51.142;4.780;2023-07-20T02:37:24;16.70;99.90
15930;DHT22;8064;51.142;4.780;2023-07-20T02:39:50;16.70;99.90
15930;DHT22;8064;51.142;4.780;2023-07-20T02:42:16;16.60;99.90
15930;DHT22;8064;51.142;4.780;2023-07-20T02:44:42;16.60;99.90
15930;DHT22;8064;51.142;4.780;2023-07-20T02:47:07;16.60;99.90
15930;DHT22;8064;51.142;4.780;2023-07-20T02:49:33;16.60;99.90
15930;DHT22;8064;51.142;4.780;2023-07-20T02:51:59;16.60;99.90
15930;DHT22;8064;51.142;4.780;2023-07-20T02:54:25;16.50;99.90
15930;DHT22;8064;51.142;4.780;2023-07-20T02:56:51;16.50;99.90
15930;DHT22;8064;51.142;4.780;2023-07-20T02:59:16;16.40;99.90
15930;DHT22;8064;51.142;4.780;2023-07-20T03:01:42;16.40;99.90
15930;DHT22;8064;51.142;4.780;2023-07-20T03:04:08;16.40;99.90
15930;DHT22;8064;51.142;4.780;2023-07-20T03:06:36;16.40;99.90
15930;DHT22;8064;51.142;4.780;2023-07-20T03:09:02;16.30;99.90
15930;DHT22;8064;51.142;4.780;2023-07-20T03:11:29;16.30;99.90
15930;DHT22;8064;51.142;4.780;2023-07-20T03:13:54;16.30;99.90
15930;DHT22;8064;51.142;4.780;2023-07-20T03:16:21;16.30;99.90
15930;DHT22;8064;51.142;4.780;2023-07-20T03:18:47;16.30;99.90
15930;DHT22;8064;51.142;4.780;2023-07-20T03:21:13;16.20;99.90
15930;DHT22;8064;51.142;4.780;2023-07-20T03:23:40;16.20;99.90
15930;DHT22;8064;51.142;4.780;2023-07-20T03:26:05;16.20;99.90
15930;DHT22;8064;51.142;4.780;2023-07-20T03:28:35;16.20;99.90
15930;DHT22;8064;51.142;4.780;2023-07-20T03:31:00;16.10;99.90
15930;DHT22;8064;51.142;4.780;2023-07-20T03:33:28;16.10;99.90
15930;DHT22;8064;51.142;4.780;2023-07-20T03:35:54;16.10;99.90
15930;DHT22;8064;51.142;4.780;2023-07-20T03:38:21;16.10;99.90
15930;DHT22;8064;51.142;4.780;2023-07-20T03:40:59;16.00;99.90
15930;DHT22;8064;51.142;4.780;2023-07-20T03:43:26;16.00;99.90
15930;DHT22;8064;51.142;4.780;2023-07-20T03:45:52;16.00;99.90
15930;DHT22;8064;51.142;4.780;2023-07-20T03:48:20;16.00;99.90
15930;DHT22;8064;51.142;4.780;2023-07-20T03:50:47;16.00;99.90
15930;DHT22;8064;51.142;4.780;2023-07-20T03:53:14;16.00;99.90
15930;DHT22;8064;51.142;4.780;2023-07-20T03:55:45;15.90;99.90
15930;DHT22;8064;51.142;4.780;2023-07-20T03:58:12;15.90;99.90
15930;DHT22;8064;51.142;4.780;2023-07-20T04:00:38;15.90;99.90
15930;DHT22;8064;51.142;4.780;2023-07-20T04:03:04;15.90;99.90
15930;DHT22;8064;51.142;4.780;2023-07-20T04:05:30;15.90;99.90
15930;DHT22;8064;51.142;4.780;2023-07-20T04:07:55;15.90;99.90
15930;DHT22;8064;51.142;4.780;2023-07-20T04:10:21;15.90;99.90
15930;DHT22;8064;51.142;4.780;2023-07-20T04:12:47;15.90;99.90
15930;DHT22;8064;51.142;4.780;2023-07-20T04:15:13;15.90;99.90
15930;DHT22;8064;51.142;4.780;2023-07-20T04:17:40;16.00;99.90
15930;DHT22;8064;51.142;4.780;2023-07-20T04:20:07;16.00;99.90
15930;DHT22;8064;51.142;4.780;2023-07-20T04:22:33;16.00;99.90
15930;DHT22;8064;51.142;4.780;2023-07-20T04:24:59;16.00;99.90
15930;DHT22;8064;51.142;4.780;2023-07-20T04:27:24;16.10;99.90
15930;DHT22;8064;51.142;4.780;2023-07-20T04:29:50;16.10;99.90
15930;DHT22;8064;51.142;4.780;2023-07-20T04:32:16;16.10;99.90
15930;DHT22;8064;51.142;4.780;2023-07-20T04:34:42;16.10;99.90
15930;DHT22;8064;51.142;4.780;2023-07-20T04:37:08;16.20;99.90
15930;DHT22;8064;51.142;4.780;2023-07-20T04:39:33;16.20;99.90
15930;DHT22;8064;51.142;4.780;2023-07-20T04:41:59;16.20;99.90
15930;DHT22;8064;51.142;4.780;2023-07-20T04:44:25;16.20;99.90
15930;DHT22;8064;51.142;4.780;2023-07-20T04:46:51;16.20;99.90
15930;DHT22;8064;51.142;4.780;2023-07-20T04:49:17;16.30;99.90
15930;DHT22;8064;51.142;4.780;2023-07-20T04:51:43;16.30;99.90
15930;DHT22;8064;51.142;4.780;2023-07-20T04:54:08;16.40;99.90
15930;DHT22;8064;51.142;4.780;2023-07-20T04:56:34;16.40;99.90
15930;DHT22;8064;51.142;4.780;2023-07-20T04:59:00;16.50;99.90
15930;DHT22;8064;51.142;4.780;2023-07-20T05:01:26;16.50;99.90
15930;DHT22;8064;51.142;4.780;2023-07-20T05:03:53;16.60;99.90
15930;DHT22;8064;51.142;4.780;2023-07-20T05:06:19;16.60;99.90
15930;DHT22;8064;51.142;4.780;2023-07-20T05:08:45;16.60;99.90
15930;DHT22;8064;51.142;4.780;2023-07-20T05:11:11;16.70;99.90
15930;DHT22;8064;51.142;4.780;2023-07-20T05:13:37;16.70;99.90
15930;DHT22;8064;51.142;4.780;2023-07-20T05:16:04;16.80;99.90
15930;DHT22;8064;51.142;4.780;2023-07-20T05:18:29;16.80;99.90
15930;DHT22;8064;51.142;4.780;2023-07-20T05:20:55;16.80;99.90
15930;DHT22;8064;51.142;4.780;2023-07-20T05:23:21;16.90;99.90
15930;DHT22;8064;51.142;4.780;2023-07-20T05:28:29;17.00;99.90
15930;DHT22;8064;51.142;4.780;2023-07-20T05:30:55;17.10;99.90
15930;DHT22;8064;51.142;4.780;2023-07-20T05:33:21;17.20;99.90
15930;DHT22;8064;51.142;4.780;2023-07-20T05:35:47;17.20;99.90
15930;DHT22;8064;51.142;4.780;2023-07-20T05:38:13;17.30;99.90
15930;DHT22;8064;51.142;4.780;2023-07-20T05:40:41;17.30;99.90
15930;DHT22;8064;51.142;4.780;2023-07-20T05:43:08;17.40;99.90
15930;DHT22;8064;51.142;4.780;2023-07-20T05:45:34;17.50;99.90
15930;DHT22;8064;51.142;4.780;2023-07-20T05:48:00;17.50;99.90
15930;DHT22;8064;51.142;4.780;2023-07-20T05:50:25;17.60;99.90
15930;DHT22;8064;51.142;4.780;2023-07-20T05:52:53;17.70;99.90
15930;DHT22;8064;51.142;4.780;2023-07-20T05:55:19;17.70;99.90
15930;DHT22;8064;51.142;4.780;2023-07-20T05:57:45;17.80;99.90
15930;DHT22;8064;51.142;4.780;2023-07-20T06:00:11;17.80;99.90
15930;DHT22;8064;51.142;4.780;2023-07-20T06:02:38;17.90;99.90
15930;DHT22;8064;51.142;4.780;2023-07-20T06:05:06;18.00;99.90
15930;DHT22;8064;51.142;4.780;2023-07-20T06:07:36;18.20;99.90
15930;DHT22;8064;51.142;4.780;2023-07-20T06:10:01;18.20;99.90
15930;DHT22;8064;51.142;4.780;2023-07-20T06:12:28;18.30;99.90
15930;DHT22;8064;51.142;4.780;2023-07-20T06:14:53;18.30;99.90
15930;DHT22;8064;51.142;4.780;2023-07-20T06:17:19;18.40;99.90
15930;DHT22;8064;51.142;4.780;2023-07-20T06:19:45;18.40;99.90
15930;DHT22;8064;51.142;4.780;2023-07-20T06:22:11;18.40;99.90
15930;DHT22;8064;51.142;4.780;2023-07-20T06:24:37;18.40;99.90
15930;DHT22;8064;51.142;4.780;2023-07-20T06:27:03;18.50;99.90
15930;DHT22;8064;51.142;4.780;2023-07-20T06:29:31;18.50;99.90
15930;DHT22;8064;51.142;4.780;2023-07-20T06:31:56;18.60;99.90
15930;DHT22;8064;51.142;4.780;2023-07-20T06:34:22;18.60;99.90
15930;DHT22;8064;51.142;4.780;2023-07-20T06:36:48;18.60;99.90
15930;DHT22;8064;51.142;4.780;2023-07-20T06:39:13;18.70;99.90
15930;DHT22;8064;51.142;4.780;2023-07-20T06:41:39;18.80;99.90
15930;DHT22;8064;51.142;4.780;2023-07-20T06:44:05;18.90;99.90
15930;DHT22;8064;51.142;4.780;2023-07-20T06:46:31;19.00;99.90
15930;DHT22;8064;51.142;4.780;2023-07-20T06:48:57;19.10;99.90
15930;DHT22;8064;51.142;4.780;2023-07-20T06:51:23;19.20;99.90
15930;DHT22;8064;51.142;4.780;2023-07-20T06:53:49;19.30;99.90
15930;DHT22;8064;51.142;4.780;2023-07-20T06:56:14;19.40;99.90
15930;DHT22;8064;51.142;4.780;2023-07-20T06:58:40;19.50;99.90
15930;DHT22;8064;51.142;4.780;2023-07-20T07:01:07;19.50;99.90
15930;DHT22;8064;51.142;4.780;2023-07-20T07:03:34;19.50;99.90
15930;DHT22;8064;51.142;4.780;2023-07-20T07:06:00;19.50;99.90
15930;DHT22;8064;51.142;4.780;2023-07-20T07:08:26;19.50;99.90
15930;DHT22;8064;51.142;4.780;2023-07-20T07:10:52;19.60;99.90
15930;DHT22;8064;51.142;4.780;2023-07-20T07:13:19;19.60;99.90
15930;DHT22;8064;51.142;4.780;2023-07-20T07:15:45;19.60;99.90
15930;DHT22;8064;51.142;4.780;2023-07-20T07:18:11;19.70;99.90
15930;DHT22;8064;51.142;4.780;2023-07-20T07:20:37;19.80;99.90
15930;DHT22;8064;51.142;4.780;2023-07-20T07:23:03;19.80;99.90
15930;DHT22;8064;51.142;4.780;2023-07-20T07:25:29;19.90;99.90
15930;DHT22;8064;51.142;4.780;2023-07-20T07:27:55;20.00;99.90
15930;DHT22;8064;51.142;4.780;2023-07-20T07:30:21;20.00;99.90
15930;DHT22;8064;51.142;4.780;2023-07-20T07:32:47;20.00;99.90
15930;DHT22;8064;51.142;4.780;2023-07-20T07:35:13;20.10;99.90
15930;DHT22;8064;51.142;4.780;2023-07-20T07:37:39;20.30;99.90
15930;DHT22;8064;51.142;4.780;2023-07-20T07:40:06;20.40;99.90
15930;DHT22;8064;51.142;4.780;2023-07-20T07:42:33;20.60;99.90
15930;DHT22;8064;51.142;4.780;2023-07-20T07:44:59;20.70;99.90
15930;DHT22;8064;51.142;4.780;2023-07-20T07:47:25;20.70;99.90
15930;DHT22;8064;51.142;4.780;2023-07-20T07:49:51;20.70;99.90
15930;DHT22;8064;51.142;4.780;2023-07-20T07:52:16;20.80;99.90
15930;DHT22;8064;51.142;4.780;2023-07-20T07:54:42;20.80;99.90
15930;DHT22;8064;51.142;4.780;2023-07-20T07:57:08;20.90;99.90
15930;DHT22;8064;51.142;4.780;2023-07-20T07:59:34;21.00;99.90
15930;DHT22;8064;51.142;4.780;2023-07-20T08:02:12;21.10;99.90
15930;DHT22;8064;51.142;4.780;2023-07-20T08:04:38;21.30;99.90
15930;DHT22;8064;51.142;4.780;2023-07-20T08:07:04;21.40;99.90
15930;DHT22;8064;51.142;4.780;2023-07-20T08:09:30;21.40;99.90
15930;DHT22;8064;51.142;4.780;2023-07-20T08:11:56;21.50;99.90
15930;DHT22;8064;51.142;4.780;2023-07-20T08:14:22;21.70;99.90
15930;DHT22;8064;51.142;4.780;2023-07-20T08:16:47;21.90;99.90
15930;DHT22;8064;51.142;4.780;2023-07-20T08:19:13;21.90;99.90
15930;DHT22;8064;51.142;4.780;2023-07-20T08:21:39;22.00;99.90
15930;DHT22;8064;51.142;4.780;2023-07-20T08:24:05;22.00;99.80
15930;DHT22;8064;51.142;4.780;2023-07-20T08:26:31;22.00;99.60
15930;DHT22;8064;51.142;4.780;2023-07-20T08:28:57;22.10;99.10
15930;DHT22;8064;51.142;4.780;2023-07-20T08:31:22;22.30;98.90
15930;DHT22;8064;51.142;4.780;2023-07-20T08:33:48;22.50;98.70
15930;DHT22;8064;51.142;4.780;2023-07-20T08:36:14;22.70;98.00
15930;DHT22;8064;51.142;4.780;2023-07-20T08:38:40;22.90;97.50
15930;DHT22;8064;51.142;4.780;2023-07-20T08:41:06;23.10;97.00
15930;DHT22;8064;51.142;4.780;2023-07-20T08:43:33;23.30;96.50
15930;DHT22;8064;51.142;4.780;2023-07-20T08:46:00;23.50;96.10
15930;DHT22;8064;51.142;4.780;2023-07-20T08:48:28;23.60;95.90
15930;DHT22;8064;51.142;4.780;2023-07-20T08:50:55;23.80;95.70
15930;DHT22;8064;51.142;4.780;2023-07-20T08:53:22;23.90;95.50
15930;DHT22;8064;51.142;4.780;2023-07-20T08:55:50;23.90;95.70
15930;DHT22;8064;51.142;4.780;2023-07-20T08:58:17;23.90;95.70
15930;DHT22;8064;51.142;4.780;2023-07-20T09:00:43;23.90;95.60
15930;DHT22;8064;51.142;4.780;2023-07-20T09:03:10;23.80;95.40
15930;DHT22;8064;51.142;4.780;2023-07-20T09:05:36;23.80;95.80
15930;DHT22;8064;51.142;4.780;2023-07-20T09:08:04;23.70;95.60
15930;DHT22;8064;51.142;4.780;2023-07-20T09:10:30;23.60;95.70
15930;DHT22;8064;51.142;4.780;2023-07-20T09:12:56;23.50;95.50
15930;DHT22;8064;51.142;4.780;2023-07-20T09:15:23;23.40;95.50
15930;DHT22;8064;51.142;4.780;2023-07-20T09:17:50;23.40;95.50
15930;DHT22;8064;51.142;4.780;2023-07-20T09:20:18;23.50;95.20
15930;DHT22;8064;51.142;4.780;2023-07-20T09:22:44;23.70;94.90
15930;DHT22;8064;51.142;4.780;2023-07-20T09:25:20;23.90;94.70
15930;DHT22;8064;51.142;4.780;2023-07-20T09:27:49;24.20;94.30
15930;DHT22;8064;51.142;4.780;2023-07-20T09:30:15;24.40;93.90
15930;DHT22;8064;51.142;4.780;2023-07-20T09:32:53;24.60;93.50
15930;DHT22;8064;51.142;4.780;2023-07-20T09:35:20;24.80;92.80
15930;DHT22;8064;51.142;4.780;2023-07-20T09:37:49;24.90;92.60
15930;DHT22;8064;51.142;4.780;2023-07-20T09:40:18;25.00;92.40
15930;DHT22;8064;51.142;4.780;2023-07-20T09:42:44;25.10;92.00
15930;DHT22;8064;51.142;4.780;2023-07-20T09:45:11;25.20;92.00
15930;DHT22;8064;51.142;4.780;2023-07-20T09:47:38;25.50;91.90
15930;DHT22;8064;51.142;4.780;2023-07-20T09:50:05;25.60;91.40
15930;DHT22;8064;51.142;4.780;2023-07-20T09:52:37;25.70;90.90
15930;DHT22;8064;51.142;4.780;2023-07-20T09:55:06;25.60;90.70
15930;DHT22;8064;51.142;4.780;2023-07-20T09:57:33;25.30;90.50
15930;DHT22;8064;51.142;4.780;2023-07-20T10:00:00;25.10;90.40
15930;DHT22;8064;51.142;4.780;2023-07-20T10:02:33;25.00;90.50
15930;DHT22;8064;51.142;4.780;2023-07-20T10:05:02;24.90;90.40
15930;DHT22;8064;51.142;4.780;2023-07-20T10:07:30;24.80;90.20
15930;DHT22;8064;51.142;4.780;2023-07-20T10:09:56;24.70;90.50
15930;DHT22;8064;51.142;4.780;2023-07-20T10:12:25;24.50;90.90
15930;DHT22;8064;51.142;4.780;2023-07-20T10:15:10;24.40;91.00
15930;DHT22;8064;51.142;4.780;2023-07-20T10:17:45;24.20;90.60
15930;DHT22;8064;51.142;4.780;2023-07-20T10:20:16;24.00;90.80
15930;DHT22;8064;51.142;4.780;2023-07-20T10:22:47;23.80;90.90
15930;DHT22;8064;51.142;4.780;2023-07-20T10:25:14;23.70;90.80
15930;DHT22;8064;51.142;4.780;2023-07-20T10:27:40;23.60;90.80
15930;DHT22;8064;51.142;4.780;2023-07-20T10:30:06;23.50;90.80
15930;DHT22;8064;51.142;4.780;2023-07-20T10:32:33;23.40;90.80
15930;DHT22;8064;51.142;4.780;2023-07-20T10:34:59;23.40;90.80
15930;DHT22;8064;51.142;4.780;2023-07-20T10:48:19;23.60;92.00
15930;DHT22;8064;51.142;4.780;2023-07-20T10:51:08;23.60;92.10
15930;DHT22;8064;51.142;4.780;2023-07-20T10:53:32;23.60;92.80
15930;DHT22;8064;51.142;4.780;2023-07-20T10:56:12;23.70;92.50
15930;DHT22;8064;51.142;4.780;2023-07-20T10:58:39;23.80;92.70
15930;DHT22;8064;51.142;4.780;2023-07-20T11:01:05;23.80;92.60
15930;DHT22;8064;51.142;4.780;2023-07-20T11:03:36;23.80;92.80
15930;DHT22;8064;51.142;4.780;2023-07-20T11:09:23;23.80;91.70
15930;DHT22;8064;51.142;4.780;2023-07-20T11:12:10;23.80;91.60
15930;DHT22;8064;51.142;4.780;2023-07-20T11:14:55;23.70;91.80
15930;DHT22;8064;51.142;4.780;2023-07-20T11:17:29;23.70;91.50
15930;DHT22;8064;51.142;4.780;2023-07-20T11:19:56;23.70;91.30
15930;DHT22;8064;51.142;4.780;2023-07-20T11:22:22;23.70;91.60
15930;DHT22;8064;51.142;4.780;2023-07-20T11:24:48;23.80;92.10
15930;DHT22;8064;51.142;4.780;2023-07-20T11:27:15;23.90;92.40
15930;DHT22;8064;51.142;4.780;2023-07-20T11:29:41;24.10;92.30
15930;DHT22;8064;51.142;4.780;2023-07-20T11:32:07;24.20;91.70
15930;DHT22;8064;51.142;4.780;2023-07-20T11:34:34;24.30;91.10
15930;DHT22;8064;51.142;4.780;2023-07-20T11:37:00;24.30;91.20
15930;DHT22;8064;51.142;4.780;2023-07-20T11:39:26;24.30;91.60
15930;DHT22;8064;51.142;4.780;2023-07-20T11:41:54;24.30;91.70
15930;DHT22;8064;51.142;4.780;2023-07-20T11:44:22;24.20;91.90
15930;DHT22;8064;51.142;4.780;2023-07-20T11:47:01;24.20;92.20
15930;DHT22;8064;51.142;4.780;2023-07-20T11:49:29;24.20;92.30
15930;DHT22;8064;51.142;4.780;2023-07-20T11:51:59;24.20;92.20
15930;DHT22;8064;51.142;4.780;2023-07-20T11:54:28;24.20;92.00
15930;DHT22;8064;51.142;4.780;2023-07-20T11:56:55;24.30;92.00
15930;DHT22;8064;51.142;4.780;2023-07-20T11:59:21;24.40;92.20
15930;DHT22;8064;51.142;4.780;2023-07-20T12:01:47;24.40;92.10
15930;DHT22;8064;51.142;4.780;2023-07-20T12:04:13;24.50;91.90
15930;DHT22;8064;51.142;4.780;2023-07-20T12:06:39;24.50;91.30
15930;DHT22;8064;51.142;4.780;2023-07-20T12:09:05;24.60;91.20
15930;DHT22;8064;51.142;4.780;2023-07-20T12:14:19;24.80;91.00
15930;DHT22;8064;51.142;4.780;2023-07-20T12:16:53;24.80;90.40
15930;DHT22;8064;51.142;4.780;2023-07-20T12:19:20;24.90;89.80
15930;DHT22;8064;51.142;4.780;2023-07-20T12:21:45;24.90;89.30
15930;DHT22;8064;51.142;4.780;2023-07-20T12:24:11;24.90;88.50
15930;DHT22;8064;51.142;4.780;2023-07-20T12:26:37;24.90;88.60
15930;DHT22;8064;51.142;4.780;2023-07-20T12:29:03;24.80;87.40
15930;DHT22;8064;51.142;4.780;2023-07-20T12:31:29;24.80;87.80
15930;DHT22;8064;51.142;4.780;2023-07-20T12:33:56;24.70;88.90
15930;DHT22;8064;51.142;4.780;2023-07-20T12:36:23;24.70;90.00
15930;DHT22;8064;51.142;4.780;2023-07-20T12:38:49;24.80;89.60
15930;DHT22;8064;51.142;4.780;2023-07-20T12:41:15;24.80;88.80
15930;DHT22;8064;51.142;4.780;2023-07-20T12:43:42;24.90;88.30
15930;DHT22;8064;51.142;4.780;2023-07-20T12:46:09;24.90;87.30
15930;DHT22;8064;51.142;4.780;2023-07-20T12:48:36;24.90;87.90
15930;DHT22;8064;51.142;4.780;2023-07-20T12:51:03;24.80;88.90
15930;DHT22;8064;51.142;4.780;2023-07-20T12:53:31;24.80;89.20
15930;DHT22;8064;51.142;4.780;2023-07-20T12:55:58;24.80;89.30
15930;DHT22;8064;51.142;4.780;2023-07-20T12:58:24;24.80;89.60
15930;DHT22;8064;51.142;4.780;2023-07-20T13:00:50;24.70;89.30
15930;DHT22;8064;51.142;4.780;2023-07-20T13:03:15;24.70;88.80
15930;DHT22;8064;51.142;4.780;2023-07-20T13:05:44;24.60;88.60
15930;DHT22;8064;51.142;4.780;2023-07-20T13:08:10;24.50;89.00
15930;DHT22;8064;51.142;4.780;2023-07-20T13:10:36;24.50;89.30
15930;DHT22;8064;51.142;4.780;2023-07-20T13:13:02;24.40;90.10
15930;DHT22;8064;51.142;4.780;2023-07-20T13:15:46;24.30;90.40
15930;DHT22;8064;51.142;4.780;2023-07-20T13:18:12;24.20;90.30
15930;DHT22;8064;51.142;4.780;2023-07-20T13:20:38;24.20;90.30
15930;DHT22;8064;51.142;4.780;2023-07-20T13:23:04;24.10;90.50
15930;DHT22;8064;51.142;4.780;2023-07-20T13:25:31;23.90;90.50
15930;DHT22;8064;51.142;4.780;2023-07-20T13:27:57;23.80;90.70
15930;DHT22;8064;51.142;4.780;2023-07-20T13:30:23;23.70;91.10
15930;DHT22;8064;51.142;4.780;2023-07-20T13:32:48;23.60;91.50
15930;DHT22;8064;51.142;4.780;2023-07-20T13:35:14;23.50;91.70
15930;DHT22;8064;51.142;4.780;2023-07-20T13:37:41;23.50;91.80
15930;DHT22;8064;51.142;4.780;2023-07-20T13:40:07;23.30;91.90
15930;DHT22;8064;51.142;4.780;2023-07-20T13:42:39;23.20;92.10
15930;DHT22;8064;51.142;4.780;2023-07-20T13:45:06;23.10;92.40
15930;DHT22;8064;51.142;4.780;2023-07-20T13:47:32;23.00;93.10
15930;DHT22;8064;51.142;4.780;2023-07-20T13:49:58;22.90;93.00
15930;DHT22;8064;51.142;4.780;2023-07-20T13:52:24;22.80;93.10
15930;DHT22;8064;51.142;4.780;2023-07-20T13:54:51;22.80;93.10
15930;DHT22;8064;51.142;4.780;2023-07-20T13:57:17;22.70;93.00
15930;DHT22;8064;51.142;4.780;2023-07-20T13:59:43;22.70;92.90
15930;DHT22;8064;51.142;4.780;2023-07-20T14:02:10;22.60;92.80
15930;DHT22;8064;51.142;4.780;2023-07-20T14:04:36;22.60;93.20
15930;DHT22;8064;51.142;4.780;2023-07-20T14:07:02;22.60;92.90
15930;DHT22;8064;51.142;4.780;2023-07-20T14:09:28;22.60;93.00
15930;DHT22;8064;51.142;4.780;2023-07-20T14:11:54;22.60;93.20
15930;DHT22;8064;51.142;4.780;2023-07-20T14:14:20;22.50;93.00
15930;DHT22;8064;51.142;4.780;2023-07-20T14:16:45;22.50;93.00
15930;DHT22;8064;51.142;4.780;2023-07-20T14:19:11;22.40;93.10
15930;DHT22;8064;51.142;4.780;2023-07-20T14:21:37;22.40;92.90
15930;DHT22;8064;51.142;4.780;2023-07-20T14:24:04;22.30;92.80
15930;DHT22;8064;51.142;4.780;2023-07-20T14:26:30;22.30;93.00
15930;DHT22;8064;51.142;4.780;2023-07-20T14:28:55;22.20;93.10
15930;DHT22;8064;51.142;4.780;2023-07-20T14:31:21;22.20;93.30
15930;DHT22;8064;51.142;4.780;2023-07-20T14:33:47;22.20;93.40
15930;DHT22;8064;51.142;4.780;2023-07-20T14:36:13;22.10;93.50
15930;DHT22;8064;51.142;4.780;2023-07-20T14:38:38;22.10;93.50
15930;DHT22;8064;51.142;4.780;2023-07-20T14:41:06;22.10;93.60
15930;DHT22;8064;51.142;4.780;2023-07-20T14:43:32;22.10;93.60
15930;DHT22;8064;51.142;4.780;2023-07-20T14:45:58;22.00;93.50
15930;DHT22;8064;51.142;4.780;2023-07-20T14:48:23;22.00;93.60
15930;DHT22;8064;51.142;4.780;2023-07-20T14:50:49;22.00;93.60
15930;DHT22;8064;51.142;4.780;2023-07-20T14:53:15;22.00;93.50
15930;DHT22;8064;51.142;4.780;2023-07-20T14:55:41;22.00;93.60
15930;DHT22;8064;51.142;4.780;2023-07-20T14:58:07;22.00;93.70
15930;DHT22;8064;51.142;4.780;2023-07-20T15:00:33;22.10;93.80
15930;DHT22;8064;51.142;4.780;2023-07-20T15:02:59;22.10;93.80
15930;DHT22;8064;51.142;4.780;2023-07-20T15:05:25;22.20;93.90
15930;DHT22;8064;51.142;4.780;2023-07-20T15:07:52;22.30;93.90
15930;DHT22;8064;51.142;4.780;2023-07-20T15:10:18;22.40;93.70
15930;DHT22;8064;51.142;4.780;2023-07-20T15:12:44;22.40;93.60
15930;DHT22;8064;51.142;4.780;2023-07-20T15:15:12;22.40;93.60
15930;DHT22;8064;51.142;4.780;2023-07-20T15:17:42;22.50;93.60
15930;DHT22;8064;51.142;4.780;2023-07-20T15:20:10;22.50;93.50
15930;DHT22;8064;51.142;4.780;2023-07-20T15:22:36;22.50;93.50
15930;DHT22;8064;51.142;4.780;2023-07-20T15:25:03;22.60;93.40
15930;DHT22;8064;51.142;4.780;2023-07-20T15:27:30;22.60;93.40
15930;DHT22;8064;51.142;4.780;2023-07-20T15:29:56;22.60;93.40
15930;DHT22;8064;51.142;4.780;2023-07-20T15:32:24;22.70;93.40
15930;DHT22;8064;51.142;4.780;2023-07-20T15:35:21;22.70;93.40
15930;DHT22;8064;51.142;4.780;2023-07-20T15:37:48;22.80;93.40
15930;DHT22;8064;51.142;4.780;2023-07-20T15:40:14;22.80;93.40
15930;DHT22;8064;51.142;4.780;2023-07-20T15:42:40;22.90;93.40
15930;DHT22;8064;51.142;4.780;2023-07-20T15:45:06;22.90;93.20
15930;DHT22;8064;51.142;4.780;2023-07-20T15:47:33;22.90;93.20
15930;DHT22;8064;51.142;4.780;2023-07-20T15:49:58;22.90;93.20
15930;DHT22;8064;51.142;4.780;2023-07-20T15:52:24;22.90;93.10
15930;DHT22;8064;51.142;4.780;2023-07-20T15:54:50;22.80;93.10
15930;DHT22;8064;51.142;4.780;2023-07-20T15:57:18;22.80;93.30
15930;DHT22;8064;51.142;4.780;2023-07-20T15:59:44;22.80;93.40
15930;DHT22;8064;51.142;4.780;2023-07-20T16:02:10;22.80;93.20
15930;DHT22;8064;51.142;4.780;2023-07-20T16:04:35;22.70;93.00
15930;DHT22;8064;51.142;4.780;2023-07-20T16:07:02;22.70;93.00
15930;DHT22;8064;51.142;4.780;2023-07-20T16:09:27;22.60;93.10
15930;DHT22;8064;51.142;4.780;2023-07-20T16:11:53;22.60;93.30
15930;DHT22;8064;51.142;4.780;2023-07-20T16:14:19;22.50;93.20